createdAt,value
2019-03-01T00:00:09.783Z,13.70
2019-03-01T00:01:09.760Z,13.80
2019-03-01T00:02:09.689Z,14.30
2019-03-01T00:03:09.644Z,13.50
2019-03-01T00:04:09.613Z,14.10
2019-03-01T00:05:09.583Z,13.50
2019-03-01T00:06:09.558Z,14.30
2019-03-01T00:07:09.500Z,14.50
2019-03-01T00:08:09.430Z,16.00
2019-03-01T00:09:09.420Z,13.90
2019-03-01T00:10:09.363Z,15.50
2019-03-01T00:11:09.327Z,15.30
2019-03-01T00:12:09.302Z,14.50
2019-03-01T00:13:09.232Z,15.30
2019-03-01T00:14:09.176Z,13.30
2019-03-01T00:15:09.149Z,14.90
2019-03-01T00:16:09.117Z,13.90
2019-03-01T00:17:09.076Z,14.90
2019-03-01T00:18:09.019Z,14.60
2019-03-01T00:19:08.996Z,13.50
2019-03-01T00:20:08.936Z,13.70
2019-03-01T00:21:08.923Z,14.60
2019-03-01T00:22:08.852Z,14.20
2019-03-01T00:23:08.814Z,14.60
2019-03-01T00:24:08.774Z,12.70
2019-03-01T00:25:08.731Z,14.70
2019-03-01T00:26:08.684Z,15.50
2019-03-01T00:27:08.667Z,13.00
2019-03-01T00:28:08.586Z,12.90
2019-03-01T00:29:08.580Z,13.40
2019-03-01T00:30:08.521Z,13.80
2019-03-01T00:31:08.491Z,14.90
2019-03-01T00:32:08.475Z,14.60
2019-03-01T00:33:08.391Z,15.70
2019-03-01T00:34:08.352Z,12.50
2019-03-01T00:35:08.303Z,14.40
2019-03-01T00:36:08.291Z,13.50
2019-03-01T00:37:08.230Z,13.10
2019-03-01T00:38:08.198Z,13.30
2019-03-01T00:39:08.125Z,14.00
2019-03-01T00:40:08.084Z,16.90
2019-03-01T00:41:08.043Z,14.10
2019-03-01T00:42:08.017Z,15.10
2019-03-01T00:43:07.960Z,12.90
2019-03-01T00:44:07.955Z,13.20
2019-03-01T00:45:07.866Z,13.40
2019-03-01T00:46:07.842Z,14.10
2019-03-01T00:47:07.792Z,17.80
2019-03-01T00:48:07.766Z,15.40
2019-03-01T00:49:07.740Z,14.20
2019-03-01T00:50:07.658Z,15.80
2019-03-01T00:51:07.616Z,14.40
2019-03-01T00:52:07.593Z,15.40
2019-03-01T00:53:07.551Z,14.70
2019-03-01T00:54:07.543Z,16.80
2019-03-01T00:55:07.467Z,14.50
2019-03-01T00:56:07.418Z,16.30
2019-03-01T00:57:07.366Z,13.50
2019-03-01T00:58:07.317Z,13.30
2019-03-01T00:59:07.287Z,15.80
2019-03-01T01:00:07.231Z,14.50
2019-03-01T01:01:07.200Z,17.60
2019-03-01T01:02:07.162Z,17.30
2019-03-01T01:03:07.131Z,16.20
2019-03-01T01:04:07.109Z,14.30
2019-03-01T01:05:07.013Z,14.50
2019-03-01T01:06:07.018Z,14.90
2019-03-01T01:07:06.975Z,16.20
2019-03-01T01:08:06.896Z,16.50
2019-03-01T01:09:06.859Z,18.30
2019-03-01T01:10:06.832Z,15.70
2019-03-01T01:11:06.782Z,15.20
2019-03-01T01:12:06.724Z,16.50
2019-03-01T01:13:06.723Z,17.00
2019-03-01T01:14:06.662Z,17.50
2019-03-01T01:15:06.621Z,17.90
2019-03-01T01:16:06.560Z,14.40
2019-03-01T01:17:06.519Z,15.60
2019-03-01T01:18:06.472Z,18.90
2019-03-01T01:19:06.434Z,15.60
2019-03-01T01:20:06.406Z,17.50
2019-03-01T01:21:06.348Z,18.20
2019-03-01T01:22:06.313Z,16.80
2019-03-01T01:23:06.284Z,17.90
2019-03-01T01:24:06.230Z,18.90
2019-03-01T01:25:06.185Z,16.20
2019-03-01T01:26:06.123Z,16.70
2019-03-01T01:27:06.089Z,17.10
2019-03-01T01:28:06.077Z,20.70
2019-03-01T01:29:06.017Z,16.90
2019-03-01T01:30:05.950Z,16.80
2019-03-01T01:31:05.935Z,17.20
2019-03-01T01:32:05.879Z,19.40
2019-03-01T01:33:05.875Z,17.50
2019-03-01T01:34:05.794Z,19.50
2019-03-01T01:35:05.778Z,16.70
2019-03-01T01:36:05.724Z,20.00
2019-03-01T01:37:05.674Z,17.70
2019-03-01T01:38:05.620Z,19.30
2019-03-01T01:39:05.607Z,18.00
2019-03-01T01:40:05.575Z,19.70
2019-03-01T01:41:05.498Z,18.00
2019-03-01T01:42:05.469Z,18.10
2019-03-01T01:43:05.416Z,18.50
2019-03-01T01:44:05.366Z,20.20
2019-03-01T01:45:05.375Z,18.90
2019-03-01T01:46:05.324Z,21.20
2019-03-01T01:47:05.258Z,18.00
2019-03-01T01:48:05.207Z,19.60
2019-03-01T01:49:05.189Z,18.80
2019-03-01T01:50:05.132Z,20.80
2019-03-01T01:51:05.062Z,20.60
2019-03-01T01:52:05.079Z,19.30
2019-03-01T01:53:05.018Z,21.00
2019-03-01T01:54:04.984Z,20.20
2019-03-01T01:55:04.913Z,21.10
2019-03-01T01:56:04.918Z,21.30
2019-03-01T01:57:04.803Z,23.50
2019-03-01T01:58:04.773Z,22.20
2019-03-01T01:59:04.781Z,20.20
2019-03-01T02:00:04.703Z,24.10
2019-03-01T02:01:04.640Z,19.90
2019-03-01T02:02:04.626Z,19.80
2019-03-01T02:03:04.596Z,23.30
2019-03-01T02:04:04.584Z,21.70
2019-03-01T02:05:04.499Z,20.40
2019-03-01T02:06:04.457Z,20.50
2019-03-01T02:07:04.422Z,21.40
2019-03-01T02:08:04.362Z,19.80
2019-03-01T02:09:04.347Z,19.20
2019-03-01T02:10:04.259Z,20.90
2019-03-01T02:11:04.234Z,22.70
2019-03-01T02:12:04.202Z,20.20
2019-03-01T02:13:04.154Z,21.30
2019-03-01T02:14:04.141Z,18.80
2019-03-01T02:15:04.054Z,20.70
2019-03-01T02:16:04.026Z,17.60
2019-03-01T02:17:03.972Z,19.20
2019-03-01T02:18:03.949Z,19.20
2019-03-01T02:19:03.939Z,18.50
2019-03-01T02:20:03.849Z,22.80
2019-03-01T02:21:03.822Z,21.20
2019-03-01T02:22:03.753Z,17.70
2019-03-01T02:23:03.729Z,19.00
2019-03-01T02:24:03.697Z,20.90
2019-03-01T02:25:03.634Z,19.70
2019-03-01T02:26:03.586Z,21.90
2019-03-01T02:27:03.573Z,19.30
2019-03-01T02:28:03.506Z,20.40
2019-03-01T02:29:03.483Z,22.70
2019-03-01T02:30:03.429Z,20.00
2019-03-01T02:31:03.395Z,20.10
2019-03-01T02:32:03.339Z,20.80
2019-03-01T02:33:03.294Z,23.00
2019-03-01T02:34:03.305Z,21.40
2019-03-01T02:35:03.220Z,19.50
2019-03-01T02:36:03.170Z,19.90
2019-03-01T02:37:03.132Z,20.40
2019-03-01T02:38:03.094Z,20.10
2019-03-01T02:39:03.067Z,19.70
2019-03-01T02:40:03.033Z,22.40
2019-03-01T02:41:03.025Z,22.00
2019-03-01T02:42:02.905Z,21.90
2019-03-01T02:43:02.867Z,23.70
2019-03-01T02:44:02.830Z,21.50
2019-03-01T02:45:02.814Z,19.40
2019-03-01T02:46:02.749Z,25.60
2019-03-01T02:47:02.706Z,23.20
2019-03-01T02:48:02.652Z,21.10
2019-03-01T02:49:02.650Z,21.50
2019-03-01T02:50:02.600Z,23.10
2019-03-01T02:51:02.554Z,22.70
2019-03-01T02:52:02.511Z,22.50
2019-03-01T02:53:02.446Z,23.50
2019-03-01T02:54:02.430Z,22.50
2019-03-01T02:55:02.390Z,18.60
2019-03-01T02:56:02.336Z,23.70
2019-03-01T02:57:02.270Z,21.30
2019-03-01T02:58:02.240Z,23.20
2019-03-01T02:59:02.197Z,22.50
2019-03-01T03:00:02.157Z,24.60
2019-03-01T03:01:02.152Z,21.10
2019-03-01T03:02:02.065Z,22.70
2019-03-01T03:03:02.013Z,23.60
2019-03-01T03:04:01.974Z,23.70
2019-03-01T03:05:01.960Z,24.10
2019-03-01T03:06:01.914Z,22.40
2019-03-01T03:07:01.861Z,24.10
2019-03-01T03:08:01.819Z,21.40
2019-03-01T03:09:01.829Z,24.50
2019-03-01T03:10:01.727Z,25.70
2019-03-01T03:11:01.713Z,23.30
2019-03-01T03:12:01.635Z,22.60
2019-03-01T03:13:01.639Z,23.90
2019-03-01T03:14:01.758Z,28.80
2019-03-01T03:15:01.544Z,24.20
2019-03-01T03:16:01.481Z,24.70
2019-03-01T03:17:01.435Z,25.40
2019-03-01T03:18:01.380Z,27.40
2019-03-01T03:19:01.373Z,25.80
2019-03-01T03:20:01.313Z,23.70
2019-03-01T03:21:01.246Z,27.70
2019-03-01T03:22:01.222Z,24.40
2019-03-01T03:23:01.190Z,25.90
2019-03-01T03:24:01.154Z,24.80
2019-03-01T03:25:01.104Z,25.10
2019-03-01T03:26:01.072Z,23.60
2019-03-01T03:27:01.049Z,25.50
2019-03-01T03:28:00.989Z,28.80
2019-03-01T03:29:00.931Z,25.50
2019-03-01T03:30:00.916Z,27.90
2019-03-01T03:31:00.828Z,25.70
2019-03-01T03:32:00.796Z,27.70
2019-03-01T03:33:00.758Z,26.40
2019-03-01T03:34:00.726Z,29.50
2019-03-01T03:35:00.731Z,30.20
2019-03-01T03:36:00.637Z,27.60
2019-03-01T03:37:00.582Z,26.70
2019-03-01T03:38:00.548Z,27.20
2019-03-01T03:39:00.500Z,28.30
2019-03-01T03:40:00.458Z,28.50
2019-03-01T03:41:00.407Z,30.30
2019-03-01T03:42:00.389Z,30.00
2019-03-01T03:43:00.370Z,29.40
2019-03-01T03:44:00.283Z,30.30
2019-03-01T03:45:00.430Z,27.80
2019-03-01T03:46:00.198Z,27.80
2019-03-01T03:47:00.144Z,30.00
2019-03-01T03:48:00.150Z,29.60
2019-03-01T03:49:00.074Z,27.50
2019-03-01T03:50:00.037Z,32.20
2019-03-01T03:50:59.982Z,29.80
2019-03-01T03:51:59.945Z,28.20
2019-03-01T03:52:59.894Z,32.80
2019-03-01T03:53:59.881Z,31.30
2019-03-01T03:54:59.806Z,30.40
2019-03-01T03:55:59.772Z,32.10
2019-03-01T03:56:59.726Z,31.70
2019-03-01T03:57:59.701Z,32.40
2019-03-01T03:58:59.646Z,34.30
2019-03-01T03:59:59.638Z,35.10
2019-03-01T04:00:59.557Z,32.50
2019-03-01T04:01:59.502Z,31.60
2019-03-01T04:02:59.510Z,33.60
2019-03-01T04:03:59.442Z,33.40
2019-03-01T04:04:59.413Z,35.70
2019-03-01T04:05:59.347Z,31.60
2019-03-01T04:06:59.301Z,31.10
2019-03-01T04:07:59.265Z,34.60
2019-03-01T04:08:59.217Z,30.50
2019-03-01T04:09:59.220Z,34.90
2019-03-01T04:10:59.136Z,31.70
2019-03-01T04:11:59.107Z,30.10
2019-03-01T04:12:59.054Z,31.30
2019-03-01T04:13:58.997Z,34.90
2019-03-01T04:14:58.980Z,32.60
2019-03-01T04:15:58.917Z,33.50
2019-03-01T04:16:58.884Z,30.40
2019-03-01T04:17:58.879Z,32.60
2019-03-01T04:18:58.804Z,32.50
2019-03-01T04:19:58.793Z,35.40
2019-03-01T04:20:58.733Z,33.60
2019-03-01T04:21:58.668Z,32.40
2019-03-01T04:22:58.661Z,33.10
2019-03-01T04:23:58.601Z,33.70
2019-03-01T04:24:58.549Z,36.30
2019-03-01T04:25:58.533Z,36.20
2019-03-01T04:26:58.440Z,30.70
2019-03-01T04:27:58.439Z,32.00
2019-03-01T04:28:58.385Z,33.30
2019-03-01T04:29:58.333Z,32.60
2019-03-01T04:30:58.303Z,33.30
2019-03-01T04:31:58.274Z,35.90
2019-03-01T04:32:58.204Z,34.20
2019-03-01T04:33:58.195Z,33.30
2019-03-01T04:34:58.108Z,34.40
2019-03-01T04:35:58.109Z,33.70
2019-03-01T04:36:58.061Z,33.20
2019-03-01T04:37:57.994Z,33.60
2019-03-01T04:38:57.946Z,34.00
2019-03-01T04:39:57.905Z,32.80
2019-03-01T04:40:57.911Z,34.50
2019-03-01T04:41:57.841Z,31.90
2019-03-01T04:42:57.790Z,36.00
2019-03-01T04:43:57.735Z,32.20
2019-03-01T04:44:57.697Z,32.10
2019-03-01T04:45:57.650Z,34.50
2019-03-01T04:46:57.636Z,34.20
2019-03-01T04:47:57.563Z,33.70
2019-03-01T04:48:57.518Z,33.70
2019-03-01T04:49:57.509Z,33.90
2019-03-01T04:50:57.459Z,31.10
2019-03-01T04:51:57.448Z,34.80
2019-03-01T04:52:57.347Z,34.40
2019-03-01T04:53:57.305Z,32.50
2019-03-01T04:54:57.294Z,34.50
2019-03-01T04:55:57.237Z,35.20
2019-03-01T04:56:57.215Z,33.10
2019-03-01T04:57:57.151Z,34.50
2019-03-01T04:58:57.105Z,31.40
2019-03-01T04:59:57.072Z,36.30
2019-03-01T05:00:57.027Z,37.00
2019-03-01T05:01:56.968Z,35.60
2019-03-01T05:02:56.993Z,36.60
2019-03-01T05:03:56.894Z,34.10
2019-03-01T05:04:56.843Z,32.70
2019-03-01T05:05:56.809Z,32.40
2019-03-01T05:06:56.790Z,34.70
2019-03-01T05:07:56.715Z,33.30
2019-03-01T05:08:56.684Z,33.50
2019-03-01T05:09:56.644Z,35.20
2019-03-01T05:10:56.595Z,33.40
2019-03-01T05:11:56.536Z,33.70
2019-03-01T05:12:56.558Z,35.50
2019-03-01T05:13:56.464Z,37.50
2019-03-01T05:14:56.440Z,34.70
2019-03-01T05:15:56.372Z,33.20
2019-03-01T05:16:56.332Z,32.60
2019-03-01T05:17:56.294Z,32.10
2019-03-01T05:18:56.282Z,35.00
2019-03-01T05:19:56.204Z,32.90
2019-03-01T05:20:56.176Z,34.70
2019-03-01T05:21:56.120Z,33.70
2019-03-01T05:22:56.118Z,35.60
2019-03-01T05:23:56.074Z,36.50
2019-03-01T05:24:56.001Z,33.20
2019-03-01T05:25:55.957Z,31.20
2019-03-01T05:26:55.915Z,35.10
2019-03-01T05:27:55.894Z,36.90
2019-03-01T05:28:55.817Z,33.10
2019-03-01T05:29:55.809Z,34.00
2019-03-01T05:30:55.730Z,30.80
2019-03-01T05:31:55.704Z,33.40
2019-03-01T05:32:55.723Z,32.50
2019-03-01T05:33:55.617Z,32.60
2019-03-01T05:34:55.578Z,31.80
2019-03-01T05:35:55.542Z,32.30
2019-03-01T05:36:55.488Z,30.60
2019-03-01T05:37:55.466Z,29.70
2019-03-01T05:38:55.420Z,32.30
2019-03-01T05:39:55.369Z,30.90
2019-03-01T05:40:55.313Z,30.60
2019-03-01T05:41:55.289Z,32.90
2019-03-01T05:42:55.268Z,33.40
2019-03-01T05:43:55.200Z,30.80
2019-03-01T05:44:55.155Z,33.80
2019-03-01T05:45:55.137Z,33.90
2019-03-01T05:46:55.089Z,32.00
2019-03-01T05:47:55.050Z,34.50
2019-03-01T05:48:55.000Z,32.80
2019-03-01T05:49:54.952Z,32.20
2019-03-01T05:50:54.904Z,31.40
2019-03-01T05:51:54.860Z,32.90
2019-03-01T05:52:54.806Z,36.30
2019-03-01T05:53:54.799Z,33.20
2019-03-01T05:54:54.743Z,34.00
2019-03-01T05:55:54.686Z,31.30
2019-03-01T05:56:54.656Z,33.10
2019-03-01T05:57:54.616Z,32.80
2019-03-01T05:58:54.607Z,35.10
2019-03-01T05:59:54.509Z,33.20
2019-03-01T06:00:54.520Z,35.80
2019-03-01T06:01:54.422Z,35.30
2019-03-01T06:02:54.410Z,36.00
2019-03-01T06:03:54.355Z,33.90
2019-03-01T06:04:54.330Z,37.50
2019-03-01T06:05:54.287Z,34.00
2019-03-01T06:06:54.241Z,35.00
2019-03-01T06:07:54.177Z,36.30
2019-03-01T06:08:54.128Z,32.20
2019-03-01T06:09:54.094Z,37.30
2019-03-01T06:10:54.055Z,35.90
2019-03-01T06:11:54.028Z,36.40
2019-03-01T06:12:54.007Z,37.30
2019-03-01T06:13:53.948Z,38.70
2019-03-01T06:14:53.900Z,39.40
2019-03-01T06:15:53.839Z,39.10
2019-03-01T06:16:53.825Z,40.00
2019-03-01T06:17:53.766Z,42.90
2019-03-01T06:18:53.716Z,40.40
2019-03-01T06:19:53.695Z,41.20
2019-03-01T06:20:53.638Z,37.70
2019-03-01T06:21:53.580Z,44.60
2019-03-01T06:22:53.548Z,43.20
2019-03-01T06:23:53.500Z,41.50
2019-03-01T06:24:53.465Z,44.00
2019-03-01T06:25:53.460Z,39.70
2019-03-01T06:26:53.380Z,44.80
2019-03-01T06:27:53.329Z,42.40
2019-03-01T06:28:53.293Z,44.60
2019-03-01T06:29:53.265Z,43.90
2019-03-01T06:30:53.225Z,46.10
2019-03-01T06:31:53.191Z,45.00
2019-03-01T06:32:53.116Z,47.80
2019-03-01T06:33:53.080Z,44.40
2019-03-01T06:34:53.039Z,45.70
2019-03-01T06:35:53.019Z,47.40
2019-03-01T06:36:52.959Z,49.80
2019-03-01T06:37:52.913Z,49.40
2019-03-01T06:38:52.865Z,35.60
2019-03-01T06:39:52.832Z,42.40
2019-03-01T06:40:52.804Z,35.90
2019-03-01T06:41:52.745Z,36.50
2019-03-01T06:42:52.694Z,33.80
2019-03-01T06:43:52.659Z,37.00
2019-03-01T06:44:52.611Z,38.90
2019-03-01T06:45:52.596Z,38.30
2019-03-01T06:46:52.518Z,37.80
2019-03-01T06:47:52.496Z,38.00
2019-03-01T06:48:52.439Z,36.10
2019-03-01T06:49:52.394Z,39.40
2019-03-01T06:50:52.383Z,38.40
2019-03-01T06:51:52.322Z,39.10
2019-03-01T06:52:52.292Z,38.80
2019-03-01T06:53:52.227Z,40.20
2019-03-01T06:54:52.179Z,42.70
2019-03-01T06:55:52.158Z,38.80
2019-03-01T06:56:52.102Z,39.40
2019-03-01T06:57:52.100Z,41.30
2019-03-01T06:58:52.023Z,48.60
2019-03-01T06:59:51.993Z,47.50
2019-03-01T07:00:51.930Z,49.20
2019-03-01T07:01:51.900Z,51.70
2019-03-01T07:02:51.861Z,54.00
2019-03-01T07:03:51.910Z,58.70
2019-03-01T07:04:52.217Z,61.50
2019-03-01T07:05:51.968Z,57.20
2019-03-01T07:06:51.724Z,60.50
2019-03-01T07:07:51.656Z,65.90
2019-03-01T07:08:51.628Z,57.40
2019-03-01T07:09:51.615Z,61.10
2019-03-01T07:10:51.528Z,66.10
2019-03-01T07:11:51.468Z,66.70
2019-03-01T07:12:51.418Z,67.70
2019-03-01T07:13:51.411Z,72.50
2019-03-01T07:14:51.339Z,64.80
2019-03-01T07:15:51.319Z,69.70
2019-03-01T07:16:51.261Z,64.20
2019-03-01T07:17:51.226Z,72.70
2019-03-01T07:18:51.176Z,72.60
2019-03-01T07:19:51.147Z,77.90
2019-03-01T07:20:51.108Z,73.10
2019-03-01T07:21:51.070Z,74.80
2019-03-01T07:22:51.012Z,84.30
2019-03-01T07:23:50.999Z,73.60
2019-03-01T07:24:50.916Z,71.20
2019-03-01T07:25:50.904Z,80.40
2019-03-01T07:26:50.846Z,76.10
2019-03-01T07:27:50.788Z,72.10
2019-03-01T07:28:50.761Z,80.70
2019-03-01T07:29:50.723Z,76.10
2019-03-01T07:30:50.696Z,75.20
2019-03-01T07:31:50.637Z,78.80
2019-03-01T07:32:50.575Z,73.90
2019-03-01T07:33:50.565Z,79.40
2019-03-01T07:34:50.501Z,77.90
2019-03-01T07:35:50.465Z,78.10
2019-03-01T07:36:50.422Z,83.40
2019-03-01T07:37:50.373Z,80.30
2019-03-01T07:38:50.336Z,77.10
2019-03-01T07:39:50.321Z,80.20
2019-03-01T07:40:50.274Z,75.80
2019-03-01T07:41:50.228Z,80.30
2019-03-01T07:42:50.159Z,77.60
2019-03-01T07:43:50.137Z,86.40
2019-03-01T07:44:50.087Z,88.80
2019-03-01T07:45:50.050Z,96.10
2019-03-01T07:46:52.875Z,100.40
2019-03-01T07:47:49.947Z,107.60
2019-03-01T07:48:49.931Z,110.50
2019-03-01T07:49:49.873Z,109.70
2019-03-01T07:50:52.520Z,114.00
2019-03-01T07:51:49.782Z,112.70
2019-03-01T07:52:49.759Z,116.50
2019-03-01T07:53:49.699Z,118.70
2019-03-01T07:54:52.747Z,120.70
2019-03-01T07:55:49.638Z,117.70
2019-03-01T07:56:49.576Z,121.40
2019-03-01T07:57:50.563Z,123.90
2019-03-01T07:58:49.511Z,129.80
2019-03-01T07:59:49.487Z,132.40
2019-03-01T08:00:53.340Z,137.00
2019-03-01T08:01:49.408Z,145.60
2019-03-01T08:02:49.353Z,149.20
2019-03-01T08:03:52.268Z,156.30
2019-03-01T08:04:49.239Z,161.00
2019-03-01T08:05:49.196Z,159.50
2019-03-01T08:06:49.672Z,169.90
2019-03-01T08:07:56.153Z,177.10
2019-03-01T08:08:49.086Z,182.00
2019-03-01T08:09:49.048Z,184.60
2019-03-01T08:10:49.000Z,189.00
2019-03-01T08:11:49.150Z,183.80
2019-03-01T08:12:49.031Z,189.50
2019-03-01T08:13:49.358Z,190.30
2019-03-01T08:14:48.836Z,196.40
2019-03-01T08:15:48.897Z,197.80
2019-03-01T08:16:48.806Z,191.40
2019-03-01T08:17:48.738Z,196.70
2019-03-01T08:18:48.651Z,203.40
2019-03-01T08:19:48.737Z,201.90
2019-03-01T08:20:48.636Z,203.00
2019-03-01T08:21:49.828Z,202.60
2019-03-01T08:22:49.363Z,218.00
2019-03-01T08:23:50.509Z,210.00
2019-03-01T08:24:48.415Z,202.40
2019-03-01T08:25:48.476Z,206.80
2019-03-01T08:26:48.325Z,205.70
2019-03-01T08:27:50.293Z,212.60
2019-03-01T08:28:48.231Z,208.60
2019-03-01T08:29:48.188Z,205.10
2019-03-01T08:30:48.143Z,200.30
2019-03-01T08:31:48.160Z,203.90
2019-03-01T08:32:48.068Z,202.10
2019-03-01T08:33:48.041Z,205.10
2019-03-01T08:34:49.852Z,204.10
2019-03-01T08:35:47.935Z,197.30
2019-03-01T08:36:47.924Z,197.30
2019-03-01T08:37:49.814Z,201.30
2019-03-01T08:38:48.019Z,204.80
2019-03-01T08:39:49.645Z,202.90
2019-03-01T08:40:49.890Z,212.20
2019-03-01T08:41:47.696Z,220.50
2019-03-01T08:42:47.637Z,215.10
2019-03-01T08:43:48.121Z,217.90
2019-03-01T08:44:47.594Z,221.70
2019-03-01T08:45:47.528Z,236.60
2019-03-01T08:46:47.555Z,230.10
2019-03-01T08:47:48.744Z,225.10
2019-03-01T08:48:47.506Z,226.10
2019-03-01T08:49:47.353Z,231.40
2019-03-01T08:50:47.328Z,237.90
2019-03-01T08:51:47.287Z,245.30
2019-03-01T08:52:47.252Z,240.20
2019-03-01T08:53:48.329Z,245.70
2019-03-01T08:54:47.144Z,252.30
2019-03-01T08:55:47.118Z,261.70
2019-03-01T08:56:50.318Z,267.10
2019-03-01T08:57:47.006Z,274.70
2019-03-01T08:58:46.976Z,282.60
2019-03-01T08:59:46.918Z,270.20
2019-03-01T09:00:46.900Z,274.90
2019-03-01T09:01:46.831Z,297.80
2019-03-01T09:02:46.788Z,282.50
2019-03-01T09:03:46.795Z,299.20
2019-03-01T09:04:50.994Z,311.50
2019-03-01T09:05:46.678Z,296.80
2019-03-01T09:06:46.623Z,315.30
2019-03-01T09:07:46.604Z,313.40
2019-03-01T09:08:46.927Z,318.30
2019-03-01T09:09:46.524Z,301.30
2019-03-01T09:10:46.463Z,316.50
2019-03-01T09:11:46.406Z,312.50
2019-03-01T09:12:46.361Z,326.60
2019-03-01T09:13:46.350Z,329.10
2019-03-01T09:14:46.266Z,325.80
2019-03-01T09:15:49.350Z,325.80
2019-03-01T09:16:46.230Z,303.50
2019-03-01T09:17:46.167Z,301.70
2019-03-01T09:18:46.581Z,292.10
2019-03-01T09:19:46.088Z,296.80
2019-03-01T09:20:46.043Z,293.90
2019-03-01T09:21:50.142Z,300.70
2019-03-01T09:22:46.084Z,300.60
2019-03-01T09:23:47.931Z,313.00
2019-03-01T09:24:45.919Z,320.90
2019-03-01T09:25:45.802Z,310.50
2019-03-01T09:26:45.760Z,304.20
2019-03-01T09:27:45.725Z,303.10
2019-03-01T09:28:45.677Z,301.00
2019-03-01T09:29:45.636Z,294.10
2019-03-01T09:30:45.645Z,288.80
2019-03-01T09:31:45.550Z,282.40
2019-03-01T09:32:45.505Z,295.20
2019-03-01T09:33:45.468Z,286.40
2019-03-01T09:34:45.438Z,285.00
2019-03-01T09:35:45.431Z,276.00
2019-03-01T09:36:45.356Z,273.20
2019-03-01T09:37:45.292Z,251.20
2019-03-01T09:38:45.272Z,248.10
2019-03-01T09:39:45.225Z,240.60
2019-03-01T09:40:45.267Z,233.20
2019-03-01T09:41:45.154Z,233.20
2019-03-01T09:42:47.496Z,226.70
2019-03-01T09:43:45.056Z,259.70
2019-03-01T09:44:45.144Z,233.30
2019-03-01T09:45:45.626Z,215.30
2019-03-01T09:46:45.071Z,204.60
2019-03-01T09:47:44.907Z,211.30
2019-03-01T09:48:45.663Z,212.30
2019-03-01T09:49:45.059Z,195.10
2019-03-01T09:50:44.745Z,196.60
2019-03-01T09:51:49.193Z,201.10
2019-03-01T09:52:46.608Z,192.10
2019-03-01T09:53:44.603Z,183.10
2019-03-01T09:54:44.584Z,176.60
2019-03-01T09:55:44.523Z,176.90
2019-03-01T09:56:44.501Z,175.00
2019-03-01T09:57:44.468Z,181.20
2019-03-01T09:58:44.393Z,169.00
2019-03-01T09:59:44.353Z,159.30
2019-03-01T10:00:44.305Z,156.50
2019-03-01T10:01:44.283Z,161.10
2019-03-01T10:02:44.258Z,163.10
2019-03-01T10:03:44.188Z,177.90
2019-03-01T10:04:44.152Z,165.30
2019-03-01T10:05:44.169Z,161.70
2019-03-01T10:06:44.072Z,157.90
2019-03-01T10:07:44.023Z,154.60
2019-03-01T10:08:43.991Z,149.10
2019-03-01T10:09:43.937Z,160.10
2019-03-01T10:10:43.919Z,154.40
2019-03-01T10:11:43.872Z,152.70
2019-03-01T10:12:43.834Z,161.00
2019-03-01T10:13:43.764Z,148.80
2019-03-01T10:14:43.737Z,149.60
2019-03-01T10:15:43.706Z,149.90
2019-03-01T10:16:43.633Z,151.70
2019-03-01T10:17:43.625Z,148.70
2019-03-01T10:18:43.560Z,160.40
2019-03-01T10:19:43.522Z,150.80
2019-03-01T10:20:43.496Z,145.80
2019-03-01T10:21:43.486Z,146.50
2019-03-01T10:22:43.396Z,144.10
2019-03-01T10:23:43.348Z,144.00
2019-03-01T10:24:43.304Z,147.90
2019-03-01T10:25:43.266Z,142.20
2019-03-01T10:26:43.245Z,146.00
2019-03-01T10:27:43.172Z,142.20
2019-03-01T10:28:43.138Z,148.20
2019-03-01T10:29:43.103Z,145.10
2019-03-01T10:30:43.054Z,143.60
2019-03-01T10:31:43.030Z,145.20
2019-03-01T10:32:42.979Z,145.90
2019-03-01T10:33:42.916Z,144.70
2019-03-01T10:34:42.923Z,146.00
2019-03-01T10:35:42.830Z,147.20
2019-03-01T10:36:42.793Z,150.10
2019-03-01T10:37:42.786Z,152.40
2019-03-01T10:38:42.721Z,155.40
2019-03-01T10:39:42.645Z,162.00
2019-03-01T10:40:42.649Z,161.70
2019-03-01T10:41:42.583Z,167.80
2019-03-01T10:42:42.576Z,175.10
2019-03-01T10:43:42.492Z,175.10
2019-03-01T10:44:42.449Z,160.90
2019-03-01T10:45:42.405Z,175.90
2019-03-01T10:46:42.405Z,182.20
2019-03-01T10:47:42.319Z,179.40
2019-03-01T10:48:42.313Z,184.40
2019-03-01T10:49:42.221Z,186.70
2019-03-01T10:50:42.206Z,194.50
2019-03-01T10:51:42.182Z,203.80
2019-03-01T10:52:42.157Z,194.00
2019-03-01T10:53:42.092Z,196.30
2019-03-01T10:54:42.028Z,205.00
2019-03-01T10:55:41.986Z,200.30
2019-03-01T10:56:41.941Z,193.30
2019-03-01T10:57:41.919Z,180.90
2019-03-01T10:58:41.834Z,188.20
2019-03-01T10:59:41.820Z,178.60
2019-03-01T11:00:41.802Z,183.30
2019-03-01T11:01:41.730Z,171.80
2019-03-01T11:02:41.680Z,173.40
2019-03-01T11:03:41.623Z,180.40
2019-03-01T11:04:41.620Z,172.30
2019-03-01T11:05:41.540Z,170.50
2019-03-01T11:06:41.508Z,166.90
2019-03-01T11:07:41.457Z,162.50
2019-03-01T11:08:41.406Z,171.40
2019-03-01T11:09:41.407Z,173.80
2019-03-01T11:10:41.323Z,176.20
2019-03-01T11:11:41.374Z,171.40
2019-03-01T11:12:41.243Z,173.00
2019-03-01T11:13:41.225Z,178.50
2019-03-01T11:14:41.226Z,178.50
2019-03-01T11:15:41.147Z,166.80
2019-03-01T11:16:41.091Z,174.40
2019-03-01T11:17:41.042Z,169.50
2019-03-01T11:18:41.004Z,185.10
2019-03-01T11:19:40.982Z,178.20
2019-03-01T11:20:40.978Z,168.10
2019-03-01T11:21:40.890Z,168.20
2019-03-01T11:22:40.837Z,184.50
2019-03-01T11:23:40.797Z,181.70
2019-03-01T11:24:40.760Z,178.10
2019-03-01T11:25:40.787Z,174.50
2019-03-01T11:26:40.663Z,172.60
2019-03-01T11:27:40.614Z,171.00
2019-03-01T11:28:40.581Z,152.80
2019-03-01T11:29:40.560Z,151.70
2019-03-01T11:30:40.524Z,141.20
2019-03-01T11:31:40.441Z,147.60
2019-03-01T11:32:40.414Z,143.30
2019-03-01T11:33:40.347Z,138.30
2019-03-01T11:34:40.326Z,131.10
2019-03-01T11:35:40.314Z,123.40
2019-03-01T11:36:40.273Z,126.40
2019-03-01T11:37:40.182Z,135.80
2019-03-01T11:38:40.154Z,129.20
2019-03-01T11:39:40.127Z,123.60
2019-03-01T11:40:40.074Z,120.30
2019-03-01T11:41:40.045Z,112.20
2019-03-01T11:42:40.002Z,121.10
2019-03-01T11:43:39.958Z,119.30
2019-03-01T11:44:39.929Z,117.70
2019-03-01T11:45:39.884Z,115.20
2019-03-01T11:46:39.847Z,109.30
2019-03-01T11:47:39.790Z,113.20
2019-03-01T11:48:39.757Z,110.40
2019-03-01T11:49:39.695Z,114.30
2019-03-01T11:50:39.649Z,114.60
2019-03-01T11:51:39.627Z,109.20
2019-03-01T11:52:39.592Z,106.60
2019-03-01T11:53:39.515Z,115.30
2019-03-01T11:54:39.460Z,109.30
2019-03-01T11:55:39.437Z,107.70
2019-03-01T11:56:39.414Z,103.80
2019-03-01T11:57:39.422Z,99.30
2019-03-01T11:58:39.300Z,101.20
2019-03-01T11:59:39.271Z,92.20
2019-03-01T12:00:39.241Z,100.00
2019-03-01T12:01:39.166Z,99.60
2019-03-01T12:02:39.165Z,88.30
2019-03-01T12:03:39.095Z,93.10
2019-03-01T12:04:39.053Z,97.10
2019-03-01T12:05:39.025Z,97.10
2019-03-01T12:06:39.011Z,104.70
2019-03-01T12:07:38.939Z,99.30
2019-03-01T12:08:38.894Z,101.30
2019-03-01T12:09:38.835Z,105.70
2019-03-01T12:10:38.801Z,101.40
2019-03-01T12:11:38.761Z,102.10
2019-03-01T12:12:38.720Z,97.90
2019-03-01T12:13:38.693Z,98.30
2019-03-01T12:14:38.638Z,98.40
2019-03-01T12:15:38.581Z,95.40
2019-03-01T12:16:38.545Z,96.80
2019-03-01T12:17:38.491Z,98.30
2019-03-01T12:18:38.460Z,97.60
2019-03-01T12:19:38.408Z,110.00
2019-03-01T12:20:38.376Z,104.50
2019-03-01T12:21:38.321Z,100.10
2019-03-01T12:22:38.282Z,101.10
2019-03-01T12:23:38.243Z,101.70
2019-03-01T12:24:38.231Z,102.30
2019-03-01T12:25:38.188Z,90.60
2019-03-01T12:26:38.102Z,98.00
2019-03-01T12:27:38.069Z,94.20
2019-03-01T12:28:38.012Z,89.10
2019-03-01T12:29:38.023Z,88.30
2019-03-01T12:30:37.933Z,86.90
2019-03-01T12:31:37.894Z,86.60
2019-03-01T12:32:37.886Z,79.60
2019-03-01T12:33:37.831Z,81.70
2019-03-01T12:34:37.796Z,81.70
2019-03-01T12:35:37.740Z,81.00
2019-03-01T12:36:37.665Z,83.30
2019-03-01T12:37:37.635Z,81.90
2019-03-01T12:38:37.614Z,88.10
2019-03-01T12:39:37.588Z,79.80
2019-03-01T12:40:37.509Z,68.00
2019-03-01T12:41:37.467Z,70.30
2019-03-01T12:42:37.416Z,69.60
2019-03-01T12:43:37.367Z,71.00